createdAt,value
2023-06-08T00:00:14.933Z,96141.22
2023-06-08T00:02:42.002Z,96132.94
2023-06-08T00:05:10.117Z,96140.38
2023-06-08T00:07:38.151Z,96139.47
2023-06-08T00:10:05.771Z,96134.50
2023-06-08T00:12:33.180Z,96139.88
2023-06-08T00:14:59.987Z,96130.38
2023-06-08T00:17:26.842Z,96131.78
2023-06-08T00:19:58.117Z,96128.28
2023-06-08T00:22:24.881Z,96132.81
2023-06-08T00:24:51.723Z,96125.78
2023-06-08T00:27:18.350Z,96130.72
2023-06-08T00:29:44.998Z,96135.63
2023-06-08T00:32:12.183Z,96126.13
2023-06-08T00:34:38.864Z,96133.56
2023-06-08T00:37:05.505Z,96129.19
2023-06-08T00:39:32.158Z,96125.22
2023-06-08T00:41:58.873Z,96121.69
2023-06-08T00:44:25.522Z,96127.25
2023-06-08T00:46:53.044Z,96119.63
2023-06-08T00:49:19.973Z,96123.97
2023-06-08T00:51:47.540Z,96113.88
2023-06-08T00:54:16.109Z,96119.63
2023-06-08T00:56:43.604Z,96110.31
2023-06-08T00:59:13.135Z,96112.78
2023-06-08T01:01:40.214Z,96113.00
2023-06-08T01:04:07.760Z,96104.16
2023-06-08T01:06:39.011Z,96101.66
2023-06-08T01:09:16.731Z,96098.78
2023-06-08T01:11:55.041Z,96097.94
2023-06-08T01:14:39.602Z,96105.97
2023-06-08T01:17:13.830Z,96099.16
2023-06-08T01:19:58.531Z,96085.53
2023-06-08T01:22:34.358Z,96092.72
2023-06-08T01:25:01.527Z,96082.22
2023-06-08T01:27:33.385Z,96078.50
2023-06-08T01:30:00.040Z,96077.66
2023-06-08T01:32:26.829Z,96070.47
2023-06-08T01:34:53.588Z,96073.16
2023-06-08T01:37:30.436Z,96068.81
2023-06-08T01:40:04.739Z,96063.66
2023-06-08T01:42:33.948Z,96055.63
2023-06-08T01:45:07.645Z,96069.00
2023-06-08T01:47:43.477Z,96060.31
2023-06-08T01:50:12.199Z,96065.88
2023-06-08T01:52:42.430Z,96055.38
2023-06-08T01:55:17.249Z,96049.56
2023-06-08T01:57:44.029Z,96056.97
2023-06-08T02:00:12.792Z,96057.81
2023-06-08T02:02:39.756Z,96055.13
2023-06-08T02:05:10.699Z,96049.41
2023-06-08T02:07:41.111Z,96050.63
2023-06-08T02:10:09.526Z,96040.72
2023-06-08T02:12:36.614Z,96050.41
2023-06-08T02:15:03.351Z,96045.06
2023-06-08T02:17:34.733Z,96045.47
2023-06-08T02:20:07.306Z,96041.69
2023-06-08T02:22:36.668Z,96040.88
2023-06-08T02:25:09.535Z,96036.31
2023-06-08T02:27:38.081Z,96036.53
2023-06-08T02:30:07.958Z,96044.94
2023-06-08T02:32:35.167Z,96037.31
2023-06-08T02:35:03.145Z,96034.63
2023-06-08T02:37:29.799Z,96032.13
2023-06-08T02:39:56.521Z,96028.84
2023-06-08T02:42:23.514Z,96035.59
2023-06-08T02:44:50.135Z,96036.81
2023-06-08T02:47:18.173Z,96025.44
2023-06-08T02:49:45.036Z,96020.75
2023-06-08T02:52:11.717Z,96018.47
2023-06-08T02:54:38.326Z,96018.47
2023-06-08T02:57:05.219Z,96022.16
2023-06-08T02:59:32.608Z,96020.06
2023-06-08T03:01:59.723Z,96020.06
2023-06-08T03:04:29.205Z,96022.09
2023-06-08T03:06:56.242Z,96032.00
2023-06-08T03:09:29.609Z,96028.88
2023-06-08T03:11:57.271Z,96024.53
2023-06-08T03:14:30.009Z,96025.38
2023-06-08T03:17:03.954Z,96027.41
2023-06-08T03:19:31.771Z,96029.06
2023-06-08T03:22:03.350Z,96027.41
2023-06-08T03:24:32.298Z,96030.06
2023-06-08T03:27:02.160Z,96035.63
2023-06-08T03:29:29.808Z,96037.47
2023-06-08T03:31:57.305Z,96038.31
2023-06-08T03:34:26.796Z,96042.44
2023-06-08T03:36:56.917Z,96037.72
2023-06-08T03:39:23.829Z,96041.03
2023-06-08T03:41:50.842Z,96040.66
2023-06-08T03:44:17.704Z,96048.47
2023-06-08T03:46:44.811Z,96055.69
2023-06-08T03:49:11.450Z,96052.63
2023-06-08T03:51:38.511Z,96055.56
2023-06-08T03:54:05.710Z,96046.13
2023-06-08T03:56:32.640Z,96053.13
2023-06-08T03:58:59.817Z,96044.91
2023-06-08T04:01:28.363Z,96055.00
2023-06-08T04:03:55.240Z,96058.97
2023-06-08T04:06:22.048Z,96055.72
2023-06-08T04:08:48.695Z,96056.97
2023-06-08T04:11:15.535Z,96058.66
2023-06-08T04:13:42.489Z,96056.38
2023-06-08T04:16:11.234Z,96064.06
2023-06-08T04:18:40.669Z,96058.28
2023-06-08T04:21:08.268Z,96064.72
2023-06-08T04:23:36.814Z,96064.16
2023-06-08T04:26:07.728Z,96065.22
2023-06-08T04:28:35.269Z,96057.59
2023-06-08T04:31:02.474Z,96066.88
2023-06-08T04:33:29.440Z,96064.69
2023-06-08T04:35:56.437Z,96072.31
2023-06-08T04:38:23.453Z,96070.72
2023-06-08T04:40:55.127Z,96076.31
2023-06-08T04:43:22.894Z,96073.03
2023-06-08T04:46:02.052Z,96083.81
2023-06-08T04:48:29.645Z,96087.75
2023-06-08T04:51:01.274Z,96088.00
2023-06-08T04:53:28.403Z,96088.00
2023-06-08T04:55:59.029Z,96095.22
2023-06-08T04:58:29.514Z,96099.72
2023-06-08T05:00:57.425Z,96093.34
2023-06-08T05:03:25.081Z,96095.88
2023-06-08T05:05:52.184Z,96093.41
2023-06-08T05:08:19.119Z,96096.34
2023-06-08T05:10:45.933Z,96096.56
2023-06-08T05:13:12.660Z,96099.72
2023-06-08T05:15:39.308Z,96101.78
2023-06-08T05:18:06.298Z,96096.84
2023-06-08T05:20:33.203Z,96103.88
2023-06-08T05:22:59.926Z,96100.41
2023-06-08T05:25:32.986Z,96098.16
2023-06-08T05:27:59.582Z,96102.47
2023-06-08T05:30:26.958Z,96101.88
2023-06-08T05:32:53.814Z,96102.47
2023-06-08T05:35:20.819Z,96095.69
2023-06-08T05:37:47.464Z,96101.06
2023-06-08T05:40:14.161Z,96097.78
2023-06-08T05:42:40.846Z,96102.16
2023-06-08T05:45:07.944Z,96099.50
2023-06-08T05:47:35.433Z,96098.06
2023-06-08T05:50:02.836Z,96096.19
2023-06-08T05:52:29.569Z,96102.38
2023-06-08T05:54:56.238Z,96094.13
2023-06-08T05:57:23.091Z,96096.81
2023-06-08T05:59:49.733Z,96101.38
2023-06-08T06:02:16.538Z,96098.03
2023-06-08T06:04:43.969Z,96089.16
2023-06-08T06:07:10.762Z,96080.88
2023-06-08T06:09:37.488Z,96075.91
2023-06-08T06:12:04.672Z,96084.34
2023-06-08T06:14:39.565Z,96088.47
2023-06-08T06:17:08.459Z,96080.16
2023-06-08T06:19:39.703Z,96083.06
2023-06-08T06:22:12.592Z,96077.22
2023-06-08T06:24:39.782Z,96080.72
2023-06-08T06:27:07.410Z,96082.56
2023-06-08T06:29:34.785Z,96077.16
2023-06-08T06:32:01.499Z,96087.09
2023-06-08T06:34:28.262Z,96080.25
2023-06-08T06:36:54.953Z,96081.84
2023-06-08T06:39:21.627Z,96083.88
2023-06-08T06:41:49.105Z,96082.56
2023-06-08T06:44:15.826Z,96078.72
2023-06-08T06:46:42.846Z,96083.63
2023-06-08T06:49:09.668Z,96077.75
2023-06-08T06:51:37.609Z,96079.41
2023-06-08T06:54:04.447Z,96076.69
2023-06-08T06:56:32.125Z,96078.06
2023-06-08T06:58:58.860Z,96077.72
2023-06-08T07:01:25.605Z,96079.72
2023-06-08T07:03:53.499Z,96078.00
2023-06-08T07:06:25.711Z,96075.41
2023-06-08T07:08:52.678Z,96073.97
2023-06-08T07:11:19.381Z,96070.47
2023-06-08T07:13:46.069Z,96071.91
2023-06-08T07:16:12.905Z,96073.19
2023-06-08T07:18:39.940Z,96076.19
2023-06-08T07:21:06.845Z,96081.97
2023-06-08T07:23:51.728Z,96075.22
2023-06-08T07:26:28.904Z,96077.75
2023-06-08T07:29:02.289Z,96075.00
2023-06-08T07:31:29.447Z,96073.50
2023-06-08T07:33:57.489Z,96069.28
2023-06-08T07:36:24.412Z,96070.97
2023-06-08T07:38:53.849Z,96062.09
2023-06-08T07:41:20.643Z,96059.50
2023-06-08T07:43:47.733Z,96054.47
2023-06-08T07:46:14.802Z,96048.94
2023-06-08T07:48:41.529Z,96055.13
2023-06-08T07:51:08.370Z,96050.25
2023-06-08T07:53:39.290Z,96043.00
2023-06-08T07:56:06.448Z,96045.63
2023-06-08T07:58:33.980Z,96054.81
2023-06-08T08:01:02.087Z,96049.56
2023-06-08T08:03:30.195Z,96054.19
2023-06-08T08:05:57.701Z,96053.97
2023-06-08T08:08:24.517Z,96053.72
2023-06-08T08:10:51.437Z,96057.03
2023-06-08T08:13:19.022Z,96046.19
2023-06-08T08:15:46.926Z,96051.84
2023-06-08T08:18:17.206Z,96046.03
2023-06-08T08:20:43.983Z,96049.59
2023-06-08T08:23:11.412Z,96041.78
2023-06-08T08:25:38.185Z,96041.50
2023-06-08T08:28:05.150Z,96040.22
2023-06-08T08:30:32.560Z,96035.81
2023-06-08T08:32:59.447Z,96041.16
2023-06-08T08:35:30.440Z,96038.84
2023-06-08T08:37:57.688Z,96037.72
2023-06-08T08:40:24.636Z,96040.88
2023-06-08T08:43:02.185Z,96032.03
2023-06-08T08:45:32.819Z,96037.66
2023-06-08T08:48:02.538Z,96031.16
2023-06-08T08:50:35.435Z,96021.88
2023-06-08T08:53:03.294Z,96024.75
2023-06-08T08:55:35.041Z,96019.22
2023-06-08T08:58:03.213Z,96024.91
2023-06-08T09:00:32.652Z,96019.63
2023-06-08T09:03:01.662Z,96018.38
2023-06-08T09:05:28.560Z,96015.34
2023-06-08T09:07:56.617Z,96018.75
2023-06-08T09:10:26.836Z,96018.63
2023-06-08T09:12:58.516Z,96018.88
2023-06-08T09:15:34.991Z,96020.16
2023-06-08T09:18:15.308Z,96017.44
2023-06-08T09:20:42.041Z,96020.28
2023-06-08T09:23:24.368Z,96012.56
2023-06-08T09:25:52.318Z,96012.56
2023-06-08T09:28:27.415Z,96009.44
2023-06-08T09:30:58.906Z,96014.84
2023-06-08T09:33:30.793Z,96009.41
2023-06-08T09:35:57.705Z,95999.88
2023-06-08T09:38:28.403Z,95987.94
2023-06-08T09:41:25.000Z,95985.91
2023-06-08T09:43:52.322Z,95983.19
2023-06-08T09:46:40.123Z,95985.38
2023-06-08T09:49:08.511Z,95972.06
2023-06-08T09:51:37.484Z,95977.44
2023-06-08T09:58:29.006Z,95977.50
2023-06-08T10:04:57.610Z,95978.38
2023-06-08T10:11:06.753Z,95972.72
2023-06-08T10:17:27.255Z,95965.19
2023-06-08T10:23:49.154Z,95960.50
2023-06-08T10:30:09.569Z,95956.13
2023-06-08T10:36:22.009Z,95953.38
2023-06-08T10:42:30.944Z,95944.31
2023-06-08T10:49:02.929Z,95941.25
2023-06-08T10:59:56.805Z,95941.31
2023-06-08T11:06:17.792Z,95934.53
2023-06-08T11:12:26.414Z,95936.03
2023-06-08T11:18:36.712Z,95907.78
2023-06-08T11:24:54.876Z,95905.94
2023-06-08T11:31:15.016Z,95884.09
2023-06-08T11:37:37.873Z,95875.19
2023-06-08T11:43:51.126Z,95876.38
2023-06-08T11:50:16.161Z,95877.63
2023-06-08T12:01:40.012Z,95866.03
2023-06-08T12:08:07.462Z,95855.25
2023-06-08T12:14:17.653Z,95851.69
2023-06-08T12:20:32.539Z,95858.19
2023-06-08T12:26:51.358Z,95868.69
2023-06-08T12:33:14.048Z,95864.44
2023-06-08T12:39:32.602Z,95861.94
2023-06-08T12:45:41.404Z,95852.25
2023-06-08T12:51:59.479Z,95844.28
2023-06-08T13:02:50.974Z,95854.25
2023-06-08T13:09:15.950Z,95853.28
2023-06-08T13:15:27.990Z,95837.84
2023-06-08T13:22:30.807Z,95831.63
2023-06-08T13:28:49.996Z,95827.59
2023-06-08T13:35:11.841Z,95831.09
2023-06-08T13:41:26.039Z,95842.38
2023-06-08T13:47:45.471Z,95860.75
2023-06-08T13:54:04.831Z,95872.88
2023-06-08T14:05:21.833Z,95874.34
2023-06-08T14:11:30.528Z,95866.00
2023-06-08T14:24:13.604Z,95857.13
2023-06-08T14:26:40.420Z,95856.16
2023-06-08T14:29:07.039Z,95870.16
2023-06-08T14:31:33.750Z,95882.25
2023-06-08T14:34:00.544Z,95889.31
2023-06-08T14:36:27.475Z,95897.84
2023-06-08T14:38:54.078Z,95898.28
2023-06-08T14:41:21.874Z,95898.72
2023-06-08T14:43:52.254Z,95900.03
2023-06-08T14:46:20.133Z,95905.34
2023-06-08T14:48:46.954Z,95910.19
2023-06-08T14:51:32.312Z,95918.84
2023-06-08T14:54:01.902Z,95925.16
2023-06-08T14:56:28.569Z,95931.59
2023-06-08T14:58:55.343Z,95928.72
2023-06-08T15:01:22.061Z,95936.13
2023-06-08T15:03:48.897Z,95956.06
2023-06-08T15:06:15.597Z,95957.09
2023-06-08T15:08:42.217Z,95971.50
2023-06-08T15:11:08.827Z,95973.97
2023-06-08T15:13:35.451Z,95982.81
2023-06-08T15:16:02.500Z,95988.09
2023-06-08T15:18:32.092Z,96000.56
2023-06-08T15:20:59.207Z,96004.66
2023-06-08T15:23:25.883Z,96002.25
2023-06-08T15:25:52.581Z,95994.63
2023-06-08T15:28:19.538Z,95999.94
2023-06-08T15:30:46.181Z,95988.47
2023-06-08T15:33:12.829Z,95987.66
2023-06-08T15:35:39.605Z,95992.13
2023-06-08T15:38:06.303Z,95986.81
2023-06-08T15:40:33.023Z,95995.47
2023-06-08T15:42:59.615Z,95981.81
2023-06-08T15:45:26.223Z,95981.81
2023-06-08T15:47:53.577Z,95981.81
2023-06-08T15:50:20.345Z,95973.56
2023-06-08T15:52:47.039Z,95969.25
2023-06-08T15:55:13.831Z,95961.94
2023-06-08T15:57:40.454Z,95958.28
2023-06-08T16:00:09.030Z,95961.84
2023-06-08T16:02:37.676Z,95967.91
2023-06-08T16:07:33.178Z,95967.81
2023-06-08T16:10:02.329Z,95966.78
2023-06-08T16:12:28.980Z,95970.50
2023-06-08T16:14:57.300Z,95955.81
2023-06-08T16:17:23.921Z,95961.50
2023-06-08T16:19:50.685Z,95958.44
2023-06-08T16:22:17.634Z,95948.31
2023-06-08T16:24:44.300Z,95941.38
2023-06-08T16:27:11.063Z,95952.22
2023-06-08T16:29:37.844Z,95936.81
2023-06-08T16:32:04.979Z,95934.28
2023-06-08T16:34:31.673Z,95928.25
2023-06-08T16:36:58.631Z,95922.22
2023-06-08T16:39:25.232Z,95923.41
2023-06-08T16:41:51.857Z,95918.41
2023-06-08T16:44:18.642Z,95927.09
2023-06-08T16:46:45.896Z,95922.28
2023-06-08T16:49:12.604Z,95916.47
2023-06-08T16:51:39.273Z,95913.78
2023-06-08T16:54:06.761Z,95910.94
2023-06-08T16:56:34.146Z,95904.16
2023-06-08T16:59:01.349Z,95907.09
2023-06-08T17:01:28.380Z,95895.94
2023-06-08T17:03:55.094Z,95894.28
2023-06-08T17:06:21.760Z,95898.03
2023-06-08T17:08:48.394Z,95899.06
2023-06-08T17:11:15.234Z,95902.16
2023-06-08T17:13:43.056Z,95902.16
2023-06-08T17:16:09.909Z,95896.97
2023-06-08T17:18:36.640Z,95896.38
2023-06-08T17:21:03.683Z,95886.63
2023-06-08T17:23:30.318Z,95889.94
2023-06-08T17:25:56.941Z,95883.31
2023-06-08T17:28:23.534Z,95879.31
2023-06-08T17:30:50.402Z,95865.25
2023-06-08T17:33:17.289Z,95869.59
2023-06-08T17:35:43.961Z,95858.06
2023-06-08T17:38:10.752Z,95852.47
2023-06-08T17:40:37.627Z,95850.66
2023-06-08T17:43:04.229Z,95853.13
2023-06-08T17:45:30.925Z,95852.09
2023-06-08T17:47:58.490Z,95853.75
2023-06-08T17:50:25.326Z,95855.59
2023-06-08T17:53:02.507Z,95850.25
2023-06-08T17:55:29.444Z,95858.56
2023-06-08T17:57:57.678Z,95848.84
2023-06-08T18:00:24.826Z,95856.53
2023-06-08T18:02:51.921Z,95859.88
2023-06-08T18:05:19.488Z,95855.75
2023-06-08T18:07:46.276Z,95859.72
2023-06-08T18:10:14.532Z,95857.47
2023-06-08T18:12:41.803Z,95857.09
2023-06-08T18:15:09.233Z,95862.09
2023-06-08T18:17:36.354Z,95851.81
2023-06-08T18:20:06.285Z,95855.75
2023-06-08T18:22:33.686Z,95866.56
2023-06-08T18:25:01.723Z,95862.47
2023-06-08T18:27:28.474Z,95867.22
2023-06-08T18:29:55.141Z,95863.72
2023-06-08T18:32:21.833Z,95865.66
2023-06-08T18:34:48.542Z,95868.19
2023-06-08T18:37:16.855Z,95872.94
2023-06-08T18:39:56.924Z,95874.84
2023-06-08T18:42:25.870Z,95883.03
2023-06-08T18:44:52.599Z,95880.34
2023-06-08T18:47:19.309Z,95889.28
2023-06-08T18:49:45.955Z,95881.22
2023-06-08T18:52:12.581Z,95884.75
2023-06-08T18:54:39.534Z,95883.09
2023-06-08T18:57:06.714Z,95888.28
2023-06-08T18:59:33.382Z,95883.53
2023-06-08T19:01:59.988Z,95882.31
2023-06-08T19:04:27.006Z,95879.88
2023-06-08T19:06:53.621Z,95885.88
2023-06-08T19:09:22.052Z,95895.16
2023-06-08T19:11:48.875Z,95898.66
2023-06-08T19:14:15.996Z,95894.75
2023-06-08T19:16:44.622Z,95900.31
2023-06-08T19:19:11.481Z,95894.94
2023-06-08T19:21:38.392Z,95891.66
2023-06-08T19:24:07.026Z,95892.06
2023-06-08T19:26:34.251Z,95901.75
2023-06-08T19:29:01.822Z,95907.97
2023-06-08T19:31:29.219Z,95917.63
2023-06-08T19:33:56.572Z,95921.75
2023-06-08T19:36:24.200Z,95928.78
2023-06-08T19:38:52.285Z,95923.84
2023-06-08T19:41:19.076Z,95928.19
2023-06-08T19:43:45.859Z,95924.47
2023-06-08T19:46:12.667Z,95925.50
2023-06-08T19:48:39.576Z,95924.88
2023-06-08T19:51:06.222Z,95933.72
2023-06-08T19:53:32.980Z,95929.63
2023-06-08T19:55:59.669Z,95927.34
2023-06-08T19:58:26.352Z,95936.41
2023-06-08T20:00:53.072Z,95940.72
2023-06-08T20:03:19.826Z,95940.72
2023-06-08T20:05:46.569Z,95940.13
2023-06-08T20:08:13.413Z,95944.25
2023-06-08T20:10:40.161Z,95941.13
2023-06-08T20:13:07.683Z,95944.59
2023-06-08T20:15:35.840Z,95948.13
2023-06-08T20:18:04.135Z,95942.72
2023-06-08T20:20:30.967Z,95952.22
2023-06-08T20:22:58.289Z,95957.97
2023-06-08T20:25:26.833Z,95958.16
2023-06-08T20:27:54.307Z,95957.53
2023-06-08T20:30:20.929Z,95951.38
2023-06-08T20:32:48.316Z,95952.78
2023-06-08T20:35:15.784Z,95951.34
2023-06-08T20:37:42.508Z,95954.41
2023-06-08T20:40:09.540Z,95961.81
2023-06-08T20:42:36.166Z,95963.66
2023-06-08T20:45:02.904Z,95969.41
2023-06-08T20:47:31.398Z,95975.38
2023-06-08T20:50:00.131Z,95977.59
2023-06-08T20:52:27.495Z,95974.31
2023-06-08T20:54:54.658Z,95969.13
2023-06-08T20:57:21.596Z,95974.69
2023-06-08T20:59:48.973Z,95973.06
2023-06-08T21:02:15.848Z,95971.38
2023-06-08T21:04:42.734Z,95977.31
2023-06-08T21:07:09.665Z,95973.00
2023-06-08T21:09:36.277Z,95977.53
2023-06-08T21:12:03.741Z,95984.94
2023-06-08T21:14:30.411Z,95982.84
2023-06-08T21:16:57.270Z,95980.38
2023-06-08T21:19:24.633Z,95981.19
2023-06-08T21:21:52.487Z,95979.09
2023-06-08T21:24:19.443Z,95979.03
2023-06-08T21:26:46.246Z,95985.19
2023-06-08T21:29:13.024Z,95982.66
2023-06-08T21:31:39.843Z,95975.03
2023-06-08T21:34:06.585Z,95981.41
2023-06-08T21:36:33.234Z,95990.03
2023-06-08T21:38:59.913Z,95990.03
2023-06-08T21:41:27.101Z,95994.16
2023-06-08T21:43:53.794Z,96002.00
2023-06-08T21:46:20.452Z,95991.28
2023-06-08T21:48:47.234Z,95992.13
2023-06-08T21:51:14.093Z,95992.13
2023-06-08T21:53:40.737Z,95986.75
2023-06-08T21:56:07.456Z,95989.44
2023-06-08T21:58:34.141Z,95982.88
2023-06-08T22:01:01.001Z,95986.38
2023-06-08T22:03:27.942Z,95977.50
2023-06-08T22:05:54.758Z,95981.84
2023-06-08T22:08:21.532Z,95978.16
2023-06-08T22:10:48.172Z,95976.50
2023-06-08T22:13:15.050Z,95981.66
2023-06-08T22:15:41.837Z,95986.81
2023-06-08T22:18:09.804Z,95981.44
2023-06-08T22:20:37.483Z,95984.97
2023-06-08T22:23:06.464Z,95995.50
2023-06-08T22:25:36.555Z,95982.28
2023-06-08T22:28:06.353Z,95981.44
2023-06-08T22:30:33.083Z,95978.16
2023-06-08T22:32:59.779Z,95978.56
2023-06-08T22:35:26.519Z,95985.94
2023-06-08T22:37:53.126Z,95982.44
2023-06-08T22:40:19.741Z,95984.63
2023-06-08T22:42:46.318Z,95977.00
2023-06-08T22:45:12.929Z,95981.13
2023-06-08T22:47:42.415Z,95974.94
2023-06-08T22:50:09.568Z,95971.03
2023-06-08T22:52:36.237Z,95970.22
2023-06-08T22:55:03.479Z,95976.19
2023-06-08T22:57:30.329Z,95965.69
2023-06-08T22:59:57.216Z,95969.38
2023-06-08T23:02:23.973Z,95954.38
2023-06-08T23:04:50.676Z,95955.78
2023-06-08T23:07:17.944Z,95956.34
2023-06-08T23:09:49.679Z,95953.63
2023-06-08T23:12:17.540Z,95947.84
2023-06-08T23:14:50.028Z,95949.66
2023-06-08T23:17:19.706Z,95949.88
2023-06-08T23:19:49.160Z,95951.88
2023-06-08T23:22:20.802Z,95954.50
2023-06-08T23:24:48.477Z,95951.41
2023-06-08T23:27:15.948Z,95941.53
2023-06-08T23:29:48.246Z,95941.72
2023-06-08T23:32:19.594Z,95931.22
2023-06-08T23:34:50.578Z,95932.03
2023-06-08T23:37:19.304Z,95929.56
2023-06-08T23:39:49.821Z,95926.06
2023-06-08T23:42:18.180Z,95925.44
2023-06-08T23:44:44.924Z,95920.84
2023-06-08T23:47:14.166Z,95923.28
2023-06-08T23:49:41.322Z,95913.78
2023-06-08T23:52:08.533Z,95916.84
2023-06-08T23:54:35.221Z,95915.41
2023-06-08T23:57:01.842Z,95908.38
2023-06-08T23:59:28.474Z,95915.41
